sensor_id;sensor_type;location;lat;lon;timestamp;P1;durP1;ratioP1;P2;durP2;ratioP2
60714;SDS011;46564;53.096;8.246;2023-05-07T00:00:30;9.57;;;4.22;;
60714;SDS011;46564;53.096;8.246;2023-05-07T00:05:32;7.35;;;3.83;;
60714;SDS011;46564;53.096;8.246;2023-05-07T00:10:33;9.38;;;4.93;;
60714;SDS011;46564;53.096;8.246;2023-05-07T00:15:35;10.48;;;4.63;;
60714;SDS011;46564;53.096;8.246;2023-05-07T00:20:36;14.05;;;5.35;;
60714;SDS011;46564;53.096;8.246;2023-05-07T00:25:38;11.93;;;5.13;;
60714;SDS011;46564;53.096;8.246;2023-05-07T00:30:39;9.90;;;4.88;;
60714;SDS011;46564;53.096;8.246;2023-05-07T00:35:41;10.50;;;5.10;;
60714;SDS011;46564;53.096;8.246;2023-05-07T00:40:44;12.98;;;5.70;;
60714;SDS011;46564;53.096;8.246;2023-05-07T00:45:46;10.50;;;4.95;;
60714;SDS011;46564;53.096;8.246;2023-05-07T00:50:48;13.20;;;5.68;;
60714;SDS011;46564;53.096;8.246;2023-05-07T00:55:50;15.02;;;5.75;;
60714;SDS011;46564;53.096;8.246;2023-05-07T01:00:51;10.65;;;4.57;;
60714;SDS011;46564;53.096;8.246;2023-05-07T01:05:53;8.05;;;4.60;;
60714;SDS011;46564;53.096;8.246;2023-05-07T01:10:57;8.98;;;4.47;;
60714;SDS011;46564;53.096;8.246;2023-05-07T01:15:59;10.23;;;4.22;;
60714;SDS011;46564;53.096;8.246;2023-05-07T01:21:06;9.18;;;3.75;;
60714;SDS011;46564;53.096;8.246;2023-05-07T01:26:12;10.52;;;4.35;;
60714;SDS011;46564;53.096;8.246;2023-05-07T01:31:14;9.00;;;4.15;;
60714;SDS011;46564;53.096;8.246;2023-05-07T01:36:18;9.93;;;4.35;;
60714;SDS011;46564;53.096;8.246;2023-05-07T01:41:22;8.88;;;4.38;;
60714;SDS011;46564;53.096;8.246;2023-05-07T01:46:23;11.27;;;4.57;;
60714;SDS011;46564;53.096;8.246;2023-05-07T01:51:27;10.10;;;4.97;;
60714;SDS011;46564;53.096;8.246;2023-05-07T01:56:29;7.45;;;3.95;;
60714;SDS011;46564;53.096;8.246;2023-05-07T02:01:31;8.10;;;4.03;;
60714;SDS011;46564;53.096;8.246;2023-05-07T02:06:33;9.98;;;4.10;;
60714;SDS011;46564;53.096;8.246;2023-05-07T02:11:38;5.97;;;3.38;;
60714;SDS011;46564;53.096;8.246;2023-05-07T02:16:40;9.27;;;3.53;;
60714;SDS011;46564;53.096;8.246;2023-05-07T02:21:44;9.52;;;4.32;;
60714;SDS011;46564;53.096;8.246;2023-05-07T02:26:45;7.53;;;3.00;;
60714;SDS011;46564;53.096;8.246;2023-05-07T02:31:47;8.90;;;3.83;;
60714;SDS011;46564;53.096;8.246;2023-05-07T02:36:54;8.52;;;4.03;;
60714;SDS011;46564;53.096;8.246;2023-05-07T02:41:59;10.70;;;3.15;;
60714;SDS011;46564;53.096;8.246;2023-05-07T02:47:01;7.57;;;3.35;;
60714;SDS011;46564;53.096;8.246;2023-05-07T02:52:03;7.55;;;3.53;;
60714;SDS011;46564;53.096;8.246;2023-05-07T02:57:05;6.82;;;3.33;;
60714;SDS011;46564;53.096;8.246;2023-05-07T03:02:06;9.75;;;4.05;;
60714;SDS011;46564;53.096;8.246;2023-05-07T03:07:08;7.18;;;3.67;;
60714;SDS011;46564;53.096;8.246;2023-05-07T03:12:09;10.80;;;4.18;;
60714;SDS011;46564;53.096;8.246;2023-05-07T03:17:11;7.63;;;3.95;;
60714;SDS011;46564;53.096;8.246;2023-05-07T03:22:13;7.20;;;3.60;;
60714;SDS011;46564;53.096;8.246;2023-05-07T03:27:15;6.32;;;3.35;;
60714;SDS011;46564;53.096;8.246;2023-05-07T03:32:17;9.05;;;4.28;;
60714;SDS011;46564;53.096;8.246;2023-05-07T03:37:19;7.75;;;3.22;;
60714;SDS011;46564;53.096;8.246;2023-05-07T03:42:21;4.85;;;3.25;;
60714;SDS011;46564;53.096;8.246;2023-05-07T03:47:25;5.50;;;2.65;;
60714;SDS011;46564;53.096;8.246;2023-05-07T03:52:27;8.85;;;3.45;;
60714;SDS011;46564;53.096;8.246;2023-05-07T03:57:31;7.57;;;3.60;;
60714;SDS011;46564;53.096;8.246;2023-05-07T04:02:33;7.85;;;3.20;;
60714;SDS011;46564;53.096;8.246;2023-05-07T04:07:36;6.28;;;3.08;;
60714;SDS011;46564;53.096;8.246;2023-05-07T04:12:38;7.65;;;3.35;;
60714;SDS011;46564;53.096;8.246;2023-05-07T04:17:41;8.00;;;3.10;;
60714;SDS011;46564;53.096;8.246;2023-05-07T04:22:44;8.05;;;3.67;;
60714;SDS011;46564;53.096;8.246;2023-05-07T04:27:46;7.13;;;2.72;;
60714;SDS011;46564;53.096;8.246;2023-05-07T04:32:49;7.35;;;3.10;;
60714;SDS011;46564;53.096;8.246;2023-05-07T04:37:51;9.57;;;3.63;;
60714;SDS011;46564;53.096;8.246;2023-05-07T04:42:53;7.90;;;3.42;;
60714;SDS011;46564;53.096;8.246;2023-05-07T04:47:55;8.63;;;3.70;;
60714;SDS011;46564;53.096;8.246;2023-05-07T04:52:57;7.15;;;3.05;;
60714;SDS011;46564;53.096;8.246;2023-05-07T04:57:59;9.48;;;5.07;;
60714;SDS011;46564;53.096;8.246;2023-05-07T05:03:05;8.63;;;3.13;;
60714;SDS011;46564;53.096;8.246;2023-05-07T05:08:08;7.78;;;3.63;;
60714;SDS011;46564;53.096;8.246;2023-05-07T05:13:13;7.70;;;3.67;;
60714;SDS011;46564;53.096;8.246;2023-05-07T05:18:15;6.78;;;3.38;;
60714;SDS011;46564;53.096;8.246;2023-05-07T05:23:17;8.00;;;3.92;;
60714;SDS011;46564;53.096;8.246;2023-05-07T05:28:19;12.18;;;3.90;;
60714;SDS011;46564;53.096;8.246;2023-05-07T05:33:20;9.57;;;4.43;;
60714;SDS011;46564;53.096;8.246;2023-05-07T05:57:09;6.95;;;2.80;;
60714;SDS011;46564;53.096;8.246;2023-05-07T06:02:12;6.57;;;2.72;;
60714;SDS011;46564;53.096;8.246;2023-05-07T06:07:15;8.20;;;3.20;;
60714;SDS011;46564;53.096;8.246;2023-05-07T06:12:16;5.95;;;2.75;;
60714;SDS011;46564;53.096;8.246;2023-05-07T06:17:18;8.65;;;3.45;;
60714;SDS011;46564;53.096;8.246;2023-05-07T06:22:23;6.57;;;2.55;;
60714;SDS011;46564;53.096;8.246;2023-05-07T06:27:25;7.47;;;3.30;;
60714;SDS011;46564;53.096;8.246;2023-05-07T06:32:27;5.82;;;3.08;;
60714;SDS011;46564;53.096;8.246;2023-05-07T06:37:29;9.68;;;3.60;;
60714;SDS011;46564;53.096;8.246;2023-05-07T06:42:37;6.65;;;3.25;;
60714;SDS011;46564;53.096;8.246;2023-05-07T06:48:02;6.97;;;2.92;;
60714;SDS011;46564;53.096;8.246;2023-05-07T06:53:08;5.32;;;2.47;;
60714;SDS011;46564;53.096;8.246;2023-05-07T06:58:09;6.65;;;3.28;;
60714;SDS011;46564;53.096;8.246;2023-05-07T07:03:11;6.20;;;3.17;;
60714;SDS011;46564;53.096;8.246;2023-05-07T07:08:14;7.35;;;3.55;;
60714;SDS011;46564;53.096;8.246;2023-05-07T07:13:19;7.20;;;2.50;;
60714;SDS011;46564;53.096;8.246;2023-05-07T07:18:21;8.05;;;3.58;;
60714;SDS011;46564;53.096;8.246;2023-05-07T07:23:24;5.90;;;2.63;;
60714;SDS011;46564;53.096;8.246;2023-05-07T07:28:26;5.53;;;2.58;;
60714;SDS011;46564;53.096;8.246;2023-05-07T07:33:28;4.70;;;2.72;;
60714;SDS011;46564;53.096;8.246;2023-05-07T07:38:30;7.40;;;3.40;;
60714;SDS011;46564;53.096;8.246;2023-05-07T07:43:32;6.43;;;2.58;;
60714;SDS011;46564;53.096;8.246;2023-05-07T07:48:34;5.57;;;2.78;;
60714;SDS011;46564;53.096;8.246;2023-05-07T07:53:35;8.63;;;3.30;;
60714;SDS011;46564;53.096;8.246;2023-05-07T07:58:37;7.30;;;3.13;;
60714;SDS011;46564;53.096;8.246;2023-05-07T08:03:40;5.68;;;2.55;;
60714;SDS011;46564;53.096;8.246;2023-05-07T08:08:42;5.35;;;2.70;;
60714;SDS011;46564;53.096;8.246;2023-05-07T08:13:45;5.85;;;2.60;;
60714;SDS011;46564;53.096;8.246;2023-05-07T08:18:47;6.78;;;2.90;;
60714;SDS011;46564;53.096;8.246;2023-05-07T08:23:48;6.63;;;3.17;;
60714;SDS011;46564;53.096;8.246;2023-05-07T08:28:51;9.43;;;3.03;;
60714;SDS011;46564;53.096;8.246;2023-05-07T08:33:52;8.02;;;3.95;;
60714;SDS011;46564;53.096;8.246;2023-05-07T08:38:54;6.93;;;3.15;;
60714;SDS011;46564;53.096;8.246;2023-05-07T08:43:57;11.90;;;3.10;;
60714;SDS011;46564;53.096;8.246;2023-05-07T08:49:00;6.30;;;3.08;;
60714;SDS011;46564;53.096;8.246;2023-05-07T08:54:02;5.60;;;3.25;;
60714;SDS011;46564;53.096;8.246;2023-05-07T08:59:06;6.72;;;3.25;;
60714;SDS011;46564;53.096;8.246;2023-05-07T09:04:09;8.55;;;3.75;;
60714;SDS011;46564;53.096;8.246;2023-05-07T09:09:13;5.18;;;2.65;;
60714;SDS011;46564;53.096;8.246;2023-05-07T09:14:18;8.77;;;3.70;;
60714;SDS011;46564;53.096;8.246;2023-05-07T09:19:23;8.10;;;3.67;;
60714;SDS011;46564;53.096;8.246;2023-05-07T09:24:27;6.38;;;3.08;;
60714;SDS011;46564;53.096;8.246;2023-05-07T09:29:37;6.95;;;3.05;;
60714;SDS011;46564;53.096;8.246;2023-05-07T09:34:40;6.90;;;3.45;;
60714;SDS011;46564;53.096;8.246;2023-05-07T09:39:45;6.00;;;3.03;;
60714;SDS011;46564;53.096;8.246;2023-05-07T09:44:50;9.18;;;3.15;;
60714;SDS011;46564;53.096;8.246;2023-05-07T09:49:56;6.07;;;3.33;;
60714;SDS011;46564;53.096;8.246;2023-05-07T09:54:59;5.20;;;2.75;;
60714;SDS011;46564;53.096;8.246;2023-05-07T10:00:03;7.00;;;3.83;;
60714;SDS011;46564;53.096;8.246;2023-05-07T10:05:23;5.97;;;2.70;;
60714;SDS011;46564;53.096;8.246;2023-05-07T10:10:29;6.72;;;3.15;;
60714;SDS011;46564;53.096;8.246;2023-05-07T10:15:34;5.70;;;2.80;;
60714;SDS011;46564;53.096;8.246;2023-05-07T10:20:37;4.82;;;2.50;;
60714;SDS011;46564;53.096;8.246;2023-05-07T10:25:42;6.72;;;2.97;;
60714;SDS011;46564;53.096;8.246;2023-05-07T10:30:56;6.18;;;2.92;;
60714;SDS011;46564;53.096;8.246;2023-05-07T10:36:24;8.93;;;4.38;;
60714;SDS011;46564;53.096;8.246;2023-05-07T10:41:27;7.53;;;3.42;;
60714;SDS011;46564;53.096;8.246;2023-05-07T10:46:29;5.63;;;2.90;;
60714;SDS011;46564;53.096;8.246;2023-05-07T10:51:41;7.05;;;3.40;;
60714;SDS011;46564;53.096;8.246;2023-05-07T10:56:54;6.13;;;3.22;;
60714;SDS011;46564;53.096;8.246;2023-05-07T11:02:02;6.53;;;3.42;;
60714;SDS011;46564;53.096;8.246;2023-05-07T11:07:26;9.13;;;3.60;;
60714;SDS011;46564;53.096;8.246;2023-05-07T11:17:55;9.30;;;4.03;;
60714;SDS011;46564;53.096;8.246;2023-05-07T11:23:06;11.57;;;3.20;;
60714;SDS011;46564;53.096;8.246;2023-05-07T11:28:13;6.35;;;3.10;;
60714;SDS011;46564;53.096;8.246;2023-05-07T11:33:22;7.53;;;3.47;;
60714;SDS011;46564;53.096;8.246;2023-05-07T11:38:26;8.05;;;3.58;;
60714;SDS011;46564;53.096;8.246;2023-05-07T11:43:28;8.63;;;3.67;;
60714;SDS011;46564;53.096;8.246;2023-05-07T11:48:30;6.43;;;3.33;;
60714;SDS011;46564;53.096;8.246;2023-05-07T11:53:36;7.57;;;3.53;;
60714;SDS011;46564;53.096;8.246;2023-05-07T11:58:39;6.97;;;3.65;;
60714;SDS011;46564;53.096;8.246;2023-05-07T12:03:42;7.28;;;3.72;;
60714;SDS011;46564;53.096;8.246;2023-05-07T12:08:47;7.97;;;3.80;;
60714;SDS011;46564;53.096;8.246;2023-05-07T12:13:49;7.32;;;3.45;;
60714;SDS011;46564;53.096;8.246;2023-05-07T12:18:51;7.40;;;3.63;;
60714;SDS011;46564;53.096;8.246;2023-05-07T12:23:56;7.80;;;3.08;;
60714;SDS011;46564;53.096;8.246;2023-05-07T12:28:57;8.55;;;3.72;;
60714;SDS011;46564;53.096;8.246;2023-05-07T12:33:59;8.00;;;4.00;;
60714;SDS011;46564;53.096;8.246;2023-05-07T12:39:01;8.82;;;3.47;;
60714;SDS011;46564;53.096;8.246;2023-05-07T12:44:04;6.15;;;3.53;;
60714;SDS011;46564;53.096;8.246;2023-05-07T12:49:06;5.43;;;2.97;;
60714;SDS011;46564;53.096;8.246;2023-05-07T12:54:07;6.65;;;3.35;;
60714;SDS011;46564;53.096;8.246;2023-05-07T12:59:09;8.52;;;3.42;;
60714;SDS011;46564;53.096;8.246;2023-05-07T13:04:10;6.30;;;2.88;;
60714;SDS011;46564;53.096;8.246;2023-05-07T13:09:12;8.85;;;3.70;;
60714;SDS011;46564;53.096;8.246;2023-05-07T13:14:14;6.95;;;3.50;;
60714;SDS011;46564;53.096;8.246;2023-05-07T13:19:16;6.03;;;3.30;;
60714;SDS011;46564;53.096;8.246;2023-05-07T13:24:18;7.72;;;3.30;;
60714;SDS011;46564;53.096;8.246;2023-05-07T13:29:20;5.82;;;3.08;;
60714;SDS011;46564;53.096;8.246;2023-05-07T13:34:26;7.22;;;3.30;;
60714;SDS011;46564;53.096;8.246;2023-05-07T13:39:29;6.10;;;2.90;;
60714;SDS011;46564;53.096;8.246;2023-05-07T13:44:31;7.45;;;2.40;;
60714;SDS011;46564;53.096;8.246;2023-05-07T13:49:32;5.55;;;2.95;;
60714;SDS011;46564;53.096;8.246;2023-05-07T13:54:34;6.95;;;2.83;;
60714;SDS011;46564;53.096;8.246;2023-05-07T13:59:35;5.68;;;3.00;;
60714;SDS011;46564;53.096;8.246;2023-05-07T14:04:37;7.63;;;2.95;;
60714;SDS011;46564;53.096;8.246;2023-05-07T14:09:38;6.05;;;2.55;;
60714;SDS011;46564;53.096;8.246;2023-05-07T14:14:40;5.82;;;3.17;;
60714;SDS011;46564;53.096;8.246;2023-05-07T14:19:42;5.57;;;2.83;;
60714;SDS011;46564;53.096;8.246;2023-05-07T14:24:44;5.35;;;3.00;;
60714;SDS011;46564;53.096;8.246;2023-05-07T14:29:50;5.75;;;2.67;;
60714;SDS011;46564;53.096;8.246;2023-05-07T14:34:52;6.07;;;2.80;;
60714;SDS011;46564;53.096;8.246;2023-05-07T14:39:53;5.40;;;2.40;;
60714;SDS011;46564;53.096;8.246;2023-05-07T14:44:55;5.57;;;2.70;;
60714;SDS011;46564;53.096;8.246;2023-05-07T14:49:57;5.47;;;2.30;;
60714;SDS011;46564;53.096;8.246;2023-05-07T14:54:59;6.38;;;2.85;;
60714;SDS011;46564;53.096;8.246;2023-05-07T15:00:03;4.97;;;2.50;;
60714;SDS011;46564;53.096;8.246;2023-05-07T15:05:05;5.90;;;2.25;;
60714;SDS011;46564;53.096;8.246;2023-05-07T15:10:07;4.70;;;1.90;;
60714;SDS011;46564;53.096;8.246;2023-05-07T15:15:09;6.47;;;2.80;;
60714;SDS011;46564;53.096;8.246;2023-05-07T15:20:11;5.18;;;2.60;;
60714;SDS011;46564;53.096;8.246;2023-05-07T15:25:13;5.50;;;2.60;;
60714;SDS011;46564;53.096;8.246;2023-05-07T15:30:15;6.53;;;3.22;;
60714;SDS011;46564;53.096;8.246;2023-05-07T15:35:17;5.53;;;2.70;;
60714;SDS011;46564;53.096;8.246;2023-05-07T15:50:26;6.27;;;2.77;;
60714;SDS011;46564;53.096;8.246;2023-05-07T15:55:27;6.22;;;3.33;;
60714;SDS011;46564;53.096;8.246;2023-05-07T16:00:29;5.65;;;2.88;;
60714;SDS011;46564;53.096;8.246;2023-05-07T16:05:30;6.05;;;3.00;;
60714;SDS011;46564;53.096;8.246;2023-05-07T16:10:32;4.80;;;2.63;;
60714;SDS011;46564;53.096;8.246;2023-05-07T16:15:33;5.88;;;3.20;;
60714;SDS011;46564;53.096;8.246;2023-05-07T16:20:36;5.93;;;2.53;;
60714;SDS011;46564;53.096;8.246;2023-05-07T16:25:37;5.95;;;2.92;;
60714;SDS011;46564;53.096;8.246;2023-05-07T16:30:39;5.35;;;2.50;;
60714;SDS011;46564;53.096;8.246;2023-05-07T16:40:44;6.82;;;2.92;;
60714;SDS011;46564;53.096;8.246;2023-05-07T16:50:47;6.38;;;3.17;;
60714;SDS011;46564;53.096;8.246;2023-05-07T16:55:48;6.10;;;3.05;;
60714;SDS011;46564;53.096;8.246;2023-05-07T17:00:50;5.60;;;3.15;;
60714;SDS011;46564;53.096;8.246;2023-05-07T17:05:52;11.35;;;2.97;;
60714;SDS011;46564;53.096;8.246;2023-05-07T17:10:53;5.22;;;2.80;;
60714;SDS011;46564;53.096;8.246;2023-05-07T17:15:55;6.40;;;2.40;;
60714;SDS011;46564;53.096;8.246;2023-05-07T17:20:56;5.75;;;2.67;;
60714;SDS011;46564;53.096;8.246;2023-05-07T17:25:58;5.30;;;2.60;;
60714;SDS011;46564;53.096;8.246;2023-05-07T17:30:59;4.97;;;2.55;;
60714;SDS011;46564;53.096;8.246;2023-05-07T17:36:01;6.47;;;2.80;;
60714;SDS011;46564;53.096;8.246;2023-05-07T17:41:03;4.68;;;2.00;;
60714;SDS011;46564;53.096;8.246;2023-05-07T17:46:04;6.90;;;2.72;;
60714;SDS011;46564;53.096;8.246;2023-05-07T17:51:08;5.63;;;2.35;;
60714;SDS011;46564;53.096;8.246;2023-05-07T17:56:10;4.78;;;2.40;;
60714;SDS011;46564;53.096;8.246;2023-05-07T18:01:12;5.53;;;2.50;;
60714;SDS011;46564;53.096;8.246;2023-05-07T18:06:14;5.28;;;2.53;;
60714;SDS011;46564;53.096;8.246;2023-05-07T18:11:19;3.78;;;2.15;;
60714;SDS011;46564;53.096;8.246;2023-05-07T18:16:22;6.18;;;2.67;;
60714;SDS011;46564;53.096;8.246;2023-05-07T18:21:23;3.80;;;2.00;;
60714;SDS011;46564;53.096;8.246;2023-05-07T18:26:25;5.18;;;2.25;;
60714;SDS011;46564;53.096;8.246;2023-05-07T18:31:26;4.95;;;2.28;;
60714;SDS011;46564;53.096;8.246;2023-05-07T18:36:28;5.07;;;2.13;;
60714;SDS011;46564;53.096;8.246;2023-05-07T18:41:29;3.88;;;2.00;;
60714;SDS011;46564;53.096;8.246;2023-05-07T18:46:31;4.50;;;2.22;;
60714;SDS011;46564;53.096;8.246;2023-05-07T18:51:33;5.30;;;2.42;;
60714;SDS011;46564;53.096;8.246;2023-05-07T18:56:34;7.88;;;2.55;;
60714;SDS011;46564;53.096;8.246;2023-05-07T19:01:36;5.22;;;2.50;;
60714;SDS011;46564;53.096;8.246;2023-05-07T19:06:37;4.97;;;2.28;;
60714;SDS011;46564;53.096;8.246;2023-05-07T19:11:39;4.13;;;1.90;;
60714;SDS011;46564;53.096;8.246;2023-05-07T19:16:40;3.42;;;1.50;;
60714;SDS011;46564;53.096;8.246;2023-05-07T19:21:42;6.43;;;2.47;;
60714;SDS011;46564;53.096;8.246;2023-05-07T19:26:44;5.57;;;2.40;;
60714;SDS011;46564;53.096;8.246;2023-05-07T19:31:45;4.68;;;2.30;;
60714;SDS011;46564;53.096;8.246;2023-05-07T19:36:47;4.80;;;2.40;;
60714;SDS011;46564;53.096;8.246;2023-05-07T19:41:48;4.88;;;2.10;;
60714;SDS011;46564;53.096;8.246;2023-05-07T19:46:50;8.60;;;1.67;;
60714;SDS011;46564;53.096;8.246;2023-05-07T19:51:53;5.25;;;2.10;;
60714;SDS011;46564;53.096;8.246;2023-05-07T19:56:54;4.30;;;2.20;;
60714;SDS011;46564;53.096;8.246;2023-05-07T20:01:56;5.20;;;2.20;;
60714;SDS011;46564;53.096;8.246;2023-05-07T20:06:58;4.05;;;1.95;;
60714;SDS011;46564;53.096;8.246;2023-05-07T20:12:00;4.35;;;2.05;;
60714;SDS011;46564;53.096;8.246;2023-05-07T20:17:01;4.45;;;2.17;;
60714;SDS011;46564;53.096;8.246;2023-05-07T20:22:03;5.30;;;2.20;;
60714;SDS011;46564;53.096;8.246;2023-05-07T20:27:04;2.88;;;1.60;;
60714;SDS011;46564;53.096;8.246;2023-05-07T20:32:06;4.10;;;2.05;;
60714;SDS011;46564;53.096;8.246;2023-05-07T20:37:08;3.95;;;1.90;;
60714;SDS011;46564;53.096;8.246;2023-05-07T20:42:14;4.70;;;1.80;;
60714;SDS011;46564;53.096;8.246;2023-05-07T20:47:16;4.43;;;2.22;;
60714;SDS011;46564;53.096;8.246;2023-05-07T20:52:17;2.78;;;1.33;;
60714;SDS011;46564;53.096;8.246;2023-05-07T20:57:19;5.40;;;2.38;;
60714;SDS011;46564;53.096;8.246;2023-05-07T21:02:21;3.80;;;2.03;;
60714;SDS011;46564;53.096;8.246;2023-05-07T21:07:22;3.17;;;1.98;;
60714;SDS011;46564;53.096;8.246;2023-05-07T21:12:24;3.85;;;1.92;;
60714;SDS011;46564;53.096;8.246;2023-05-07T21:17:25;4.85;;;2.08;;
60714;SDS011;46564;53.096;8.246;2023-05-07T21:22:29;4.00;;;1.92;;
60714;SDS011;46564;53.096;8.246;2023-05-07T21:27:30;4.40;;;2.22;;
60714;SDS011;46564;53.096;8.246;2023-05-07T21:32:32;4.47;;;1.83;;
60714;SDS011;46564;53.096;8.246;2023-05-07T21:37:34;3.33;;;1.90;;
60714;SDS011;46564;53.096;8.246;2023-05-07T21:42:35;4.55;;;2.15;;
60714;SDS011;46564;53.096;8.246;2023-05-07T21:47:37;4.10;;;2.00;;
60714;SDS011;46564;53.096;8.246;2023-05-07T21:52:39;3.95;;;2.00;;
60714;SDS011;46564;53.096;8.246;2023-05-07T21:57:40;7.95;;;2.05;;
60714;SDS011;46564;53.096;8.246;2023-05-07T22:02:54;3.28;;;1.70;;
60714;SDS011;46564;53.096;8.246;2023-05-07T22:07:56;2.55;;;1.40;;
60714;SDS011;46564;53.096;8.246;2023-05-07T22:12:57;6.28;;;2.10;;
60714;SDS011;46564;53.096;8.246;2023-05-07T22:17:59;4.40;;;2.20;;
60714;SDS011;46564;53.096;8.246;2023-05-07T22:23:01;4.00;;;1.83;;
60714;SDS011;46564;53.096;8.246;2023-05-07T22:28:02;3.78;;;1.88;;
60714;SDS011;46564;53.096;8.246;2023-05-07T22:33:04;4.40;;;2.20;;
60714;SDS011;46564;53.096;8.246;2023-05-07T22:38:06;3.80;;;1.75;;
60714;SDS011;46564;53.096;8.246;2023-05-07T22:43:07;3.40;;;1.80;;
60714;SDS011;46564;53.096;8.246;2023-05-07T22:48:09;4.68;;;2.08;;
60714;SDS011;46564;53.096;8.246;2023-05-07T22:53:11;4.85;;;2.30;;
60714;SDS011;46564;53.096;8.246;2023-05-07T22:58:12;4.95;;;2.50;;
60714;SDS011;46564;53.096;8.246;2023-05-07T23:03:14;4.32;;;2.22;;
60714;SDS011;46564;53.096;8.246;2023-05-07T23:08:16;5.35;;;2.35;;
60714;SDS011;46564;53.096;8.246;2023-05-07T23:13:17;4.43;;;2.25;;
60714;SDS011;46564;53.096;8.246;2023-05-07T23:18:19;4.22;;;2.00;;
60714;SDS011;46564;53.096;8.246;2023-05-07T23:23:20;3.95;;;1.73;;
60714;SDS011;46564;53.096;8.246;2023-05-07T23:28:22;5.95;;;2.22;;
60714;SDS011;46564;53.096;8.246;2023-05-07T23:33:24;3.92;;;1.75;;
60714;SDS011;46564;53.096;8.246;2023-05-07T23:38:25;5.10;;;2.03;;
60714;SDS011;46564;53.096;8.246;2023-05-07T23:43:27;4.70;;;1.85;;
60714;SDS011;46564;53.096;8.246;2023-05-07T23:48:29;3.75;;;1.80;;
60714;SDS011;46564;53.096;8.246;2023-05-07T23:53:31;3.50;;;1.80;;
60714;SDS011;46564;53.096;8.246;2023-05-07T23:58:32;3.15;;;2.00;;
